createdAt,value
2023-03-30T00:02:18.700Z,10.40
2023-03-30T00:08:20.574Z,10.50
2023-03-30T00:14:29.655Z,10.60
2023-03-30T00:20:34.809Z,10.50
2023-03-30T00:26:36.671Z,10.50
2023-03-30T00:32:39.669Z,10.40
2023-03-30T00:38:41.551Z,10.40
2023-03-30T00:45:07.117Z,10.40
2023-03-30T00:51:10.547Z,10.50
2023-03-30T00:57:13.526Z,10.60
2023-03-30T01:03:21.354Z,10.50
2023-03-30T01:09:23.474Z,10.50
2023-03-30T01:15:26.885Z,10.40
2023-03-30T01:21:45.685Z,10.40
2023-03-30T01:28:21.431Z,10.40
2023-03-30T01:34:51.742Z,10.40
2023-03-30T01:41:03.753Z,10.20
2023-03-30T01:47:16.418Z,10.30
2023-03-30T01:53:21.447Z,10.30
2023-03-30T01:59:27.257Z,10.30
2023-03-30T02:05:30.824Z,10.30
2023-03-30T02:11:33.964Z,10.20
2023-03-30T02:17:38.147Z,10.10
2023-03-30T02:23:46.460Z,10.00
2023-03-30T02:29:49.078Z,9.80
2023-03-30T02:36:27.932Z,9.90
2023-03-30T02:42:29.905Z,9.90
2023-03-30T02:49:05.624Z,9.90
2023-03-30T02:55:37.255Z,9.80
2023-03-30T03:02:28.453Z,9.80
2023-03-30T03:08:43.152Z,9.80
2023-03-30T03:14:48.630Z,9.90
2023-03-30T03:20:51.406Z,9.90
2023-03-30T03:26:55.617Z,10.00
2023-03-30T03:32:58.749Z,10.30
2023-03-30T03:39:02.720Z,10.40
2023-03-30T03:45:05.831Z,10.60
2023-03-30T03:51:11.662Z,10.70
2023-03-30T03:57:13.682Z,10.80
2023-03-30T04:03:15.885Z,10.90
2023-03-30T04:09:19.178Z,10.80
2023-03-30T04:15:44.155Z,10.90
2023-03-30T04:21:55.511Z,10.80
2023-03-30T04:28:11.722Z,10.90
2023-03-30T04:34:31.395Z,11.00
2023-03-30T04:40:41.796Z,11.10
2023-03-30T04:47:02.447Z,11.30
2023-03-30T04:53:40.651Z,11.40
2023-03-30T05:00:01.349Z,11.50
2023-03-30T05:06:15.098Z,11.50
2023-03-30T05:12:16.998Z,11.60
2023-03-30T05:18:27.244Z,11.70
2023-03-30T05:24:43.334Z,11.70
2023-03-30T05:30:55.070Z,11.80
2023-03-30T05:37:23.181Z,11.90
2023-03-30T05:43:36.632Z,12.00
2023-03-30T05:50:02.240Z,12.00
2023-03-30T05:56:14.614Z,12.20
2023-03-30T06:02:27.401Z,12.30
2023-03-30T06:08:35.478Z,12.50
2023-03-30T06:14:39.418Z,12.70
2023-03-30T06:21:04.100Z,12.90
2023-03-30T06:27:07.448Z,13.10
2023-03-30T06:33:09.592Z,13.40
2023-03-30T06:39:20.073Z,13.70
2023-03-30T06:45:22.085Z,13.90
2023-03-30T06:51:24.112Z,13.80
2023-03-30T06:57:26.822Z,13.70
2023-03-30T07:03:30.053Z,13.60
2023-03-30T07:09:54.911Z,13.50
2023-03-30T07:15:58.898Z,13.60
2023-03-30T07:22:01.269Z,13.60
2023-03-30T07:28:06.204Z,13.60
2023-03-30T07:34:09.366Z,13.60
2023-03-30T07:40:15.917Z,13.70
2023-03-30T07:46:17.973Z,13.80
2023-03-30T07:52:23.215Z,13.80
2023-03-30T07:58:31.494Z,13.90
2023-03-30T08:04:33.793Z,14.00
2023-03-30T08:10:36.526Z,14.30
2023-03-30T08:16:38.553Z,14.50
2023-03-30T08:22:40.406Z,14.70
2023-03-30T08:28:42.415Z,14.90
2023-03-30T08:34:44.867Z,15.20
2023-03-30T08:40:48.240Z,15.40
2023-03-30T08:46:50.610Z,15.50
2023-03-30T08:52:52.851Z,15.60
2023-03-30T08:59:12.757Z,15.50
2023-03-30T09:05:23.128Z,15.80
2023-03-30T09:11:37.936Z,16.30
2023-03-30T09:17:47.479Z,16.30
2023-03-30T09:23:49.584Z,16.50
2023-03-30T09:29:58.371Z,16.50
2023-03-30T09:36:10.787Z,16.60
2023-03-30T09:42:57.365Z,16.60
2023-03-30T09:49:14.256Z,16.80
2023-03-30T09:55:21.982Z,17.00
2023-03-30T10:01:37.590Z,17.10
2023-03-30T10:07:41.717Z,17.00
2023-03-30T10:13:48.730Z,16.90
2023-03-30T10:20:14.413Z,16.80
2023-03-30T10:26:20.703Z,16.80
2023-03-30T10:32:31.695Z,17.00
2023-03-30T10:38:34.545Z,17.20
2023-03-30T10:44:45.209Z,17.20
2023-03-30T10:50:55.574Z,17.10
2023-03-30T10:57:11.814Z,17.10
2023-03-30T11:03:22.012Z,16.80
2023-03-30T11:09:31.498Z,17.00
2023-03-30T11:15:36.078Z,16.80
2023-03-30T11:21:56.973Z,16.10
2023-03-30T11:28:23.016Z,13.80
2023-03-30T11:34:48.843Z,12.80
2023-03-30T11:40:56.543Z,12.80
2023-03-30T11:47:21.578Z,12.90
2023-03-30T11:54:20.043Z,13.10
2023-03-30T12:00:58.363Z,13.20
2023-03-30T12:07:09.457Z,13.40
2023-03-30T12:13:16.361Z,13.70
2023-03-30T12:19:56.450Z,14.10
2023-03-30T12:26:24.229Z,14.20
2023-03-30T12:32:29.247Z,14.50
2023-03-30T12:38:46.621Z,14.70
2023-03-30T12:45:06.800Z,14.50
2023-03-30T12:51:31.976Z,14.20
2023-03-30T12:58:02.487Z,14.70
2023-03-30T13:04:14.260Z,15.20
2023-03-30T13:10:31.778Z,15.60
2023-03-30T13:17:11.959Z,16.00
2023-03-30T13:23:14.167Z,16.20
2023-03-30T13:29:17.329Z,16.50
2023-03-30T13:35:49.078Z,16.40
2023-03-30T13:41:58.015Z,16.10
2023-03-30T13:48:08.991Z,16.10
2023-03-30T13:54:28.366Z,16.20
2023-03-30T14:00:33.296Z,16.30
2023-03-30T14:06:44.121Z,15.90
2023-03-30T14:12:48.873Z,15.60
2023-03-30T14:18:51.436Z,15.80
2023-03-30T14:25:27.063Z,16.40
2023-03-30T14:31:38.753Z,16.20
2023-03-30T14:37:45.251Z,16.60
2023-03-30T14:43:58.634Z,16.40
2023-03-30T14:50:04.630Z,15.60
2023-03-30T14:56:07.785Z,15.40
2023-03-30T15:02:27.237Z,15.50
2023-03-30T15:08:33.426Z,15.30
2023-03-30T15:14:38.338Z,15.00
2023-03-30T15:20:42.401Z,14.50
2023-03-30T15:26:49.651Z,14.40
2023-03-30T15:32:56.050Z,14.30
2023-03-30T15:38:59.081Z,14.10
2023-03-30T15:45:19.988Z,13.90
2023-03-30T15:51:25.207Z,13.80
2023-03-30T15:57:30.845Z,13.70
2023-03-30T16:03:39.338Z,13.80
2023-03-30T16:09:41.250Z,14.10
2023-03-30T16:15:46.375Z,14.60
2023-03-30T16:21:48.288Z,15.40
2023-03-30T16:27:50.297Z,15.60
2023-03-30T16:33:52.897Z,15.10
2023-03-30T16:39:54.723Z,14.60
2023-03-30T16:45:56.593Z,14.30
2023-03-30T16:51:58.480Z,14.30
2023-03-30T16:58:00.394Z,14.40
2023-03-30T17:04:03.294Z,14.90
2023-03-30T17:11:01.281Z,15.60
2023-03-30T17:17:07.277Z,15.40
2023-03-30T17:23:10.267Z,14.80
2023-03-30T17:29:12.190Z,14.10
2023-03-30T17:35:14.991Z,13.80
2023-03-30T17:41:19.436Z,13.60
2023-03-30T17:47:21.365Z,13.20
2023-03-30T17:53:23.441Z,13.10
2023-03-30T17:59:25.363Z,13.00
2023-03-30T18:05:30.973Z,13.00
2023-03-30T18:11:32.809Z,13.00
2023-03-30T18:17:34.679Z,12.80
2023-03-30T18:23:37.276Z,12.60
2023-03-30T18:29:39.143Z,12.40
2023-03-30T18:35:41.820Z,12.30
2023-03-30T18:41:43.576Z,12.20
2023-03-30T18:47:45.697Z,12.20
2023-03-30T18:53:47.574Z,12.10
2023-03-30T18:59:49.337Z,11.80
2023-03-30T19:05:51.740Z,11.60
2023-03-30T19:11:53.514Z,11.50
2023-03-30T19:17:55.484Z,11.30
2023-03-30T19:23:57.409Z,11.20
2023-03-30T19:29:59.268Z,11.20
2023-03-30T19:36:01.113Z,11.40
2023-03-30T19:42:03.070Z,11.60
2023-03-30T19:48:04.983Z,11.50
2023-03-30T19:54:07.392Z,11.60
2023-03-30T20:00:15.329Z,11.60
2023-03-30T20:06:17.307Z,11.50
2023-03-30T20:12:19.148Z,11.30
2023-03-30T20:18:20.985Z,11.30
2023-03-30T20:24:23.739Z,11.40
2023-03-30T20:30:25.573Z,11.30
2023-03-30T20:36:28.711Z,11.20
2023-03-30T20:42:30.936Z,11.10
2023-03-30T20:48:39.832Z,11.10
2023-03-30T20:54:42.352Z,11.10
2023-03-30T21:00:44.103Z,11.10
2023-03-30T21:06:46.217Z,11.00
2023-03-30T21:12:48.092Z,11.00
2023-03-30T21:18:50.934Z,10.90
2023-03-30T21:24:52.760Z,10.90
2023-03-30T21:30:56.061Z,10.90
2023-03-30T21:36:58.119Z,10.90
2023-03-30T21:42:59.950Z,10.90
2023-03-30T21:49:01.808Z,10.90
2023-03-30T21:55:04.262Z,10.90
2023-03-30T22:01:12.367Z,11.00
2023-03-30T22:07:14.983Z,11.00
2023-03-30T22:13:16.755Z,11.10
2023-03-30T22:19:20.952Z,11.10
2023-03-30T22:25:24.007Z,11.10
2023-03-30T22:31:26.686Z,11.10
2023-03-30T22:37:29.755Z,11.10
2023-03-30T22:43:32.727Z,11.10
2023-03-30T22:49:34.837Z,11.10
2023-03-30T22:55:36.654Z,11.10
2023-03-30T23:01:39.278Z,11.20
2023-03-30T23:07:44.102Z,11.20
2023-03-30T23:13:46.201Z,11.10
2023-03-30T23:19:48.010Z,11.10
2023-03-30T23:25:52.730Z,11.00
2023-03-30T23:31:54.645Z,10.90
2023-03-30T23:37:56.469Z,10.70
2023-03-30T23:43:58.245Z,10.50
2023-03-30T23:50:00.044Z,10.30
2023-03-30T23:56:06.169Z,10.20
